createdAt,value
2018-11-26T00:02:02.615Z,100237.56
2018-11-26T00:04:33.026Z,100233.16
2018-11-26T00:07:02.754Z,100235.69
2018-11-26T00:09:32.417Z,100235.95
2018-11-26T00:12:03.596Z,100241.52
2018-11-26T00:14:33.286Z,100240.97
2018-11-26T00:17:02.965Z,100237.94
2018-11-26T00:19:32.728Z,100239.39
2018-11-26T00:22:02.369Z,100235.46
2018-11-26T00:24:32.006Z,100233.47
2018-11-26T00:27:01.888Z,100236.05
2018-11-26T00:29:31.658Z,100237.56
2018-11-26T00:32:01.531Z,100233.34
2018-11-26T00:34:31.221Z,100230.67
2018-11-26T00:37:00.887Z,100230.87
2018-11-26T00:39:30.498Z,100231.64
2018-11-26T00:42:00.832Z,100229.19
2018-11-26T00:44:30.505Z,100230.13
2018-11-26T00:47:00.139Z,100227.24
2018-11-26T00:49:29.842Z,100225.61
2018-11-26T00:51:59.518Z,100226.39
2018-11-26T00:54:29.201Z,100221.53
2018-11-26T00:56:58.958Z,100218.96
2018-11-26T00:59:28.622Z,100220.92
2018-11-26T01:01:58.391Z,100216.93
2018-11-26T01:04:28.462Z,100218.09
2018-11-26T01:06:58.156Z,100214.50
2018-11-26T01:09:27.851Z,100214.55
2018-11-26T01:11:57.554Z,100214.68
2018-11-26T01:14:27.205Z,100222.41
2018-11-26T01:16:59.993Z,100213.91
2018-11-26T01:19:30.339Z,100219.11
2018-11-26T01:22:00.453Z,100217.12
2018-11-26T01:24:30.096Z,100217.34
2018-11-26T01:26:59.768Z,100219.50
2018-11-26T01:29:30.043Z,100215.52
2018-11-26T01:31:59.715Z,100221.02
2018-11-26T01:34:29.439Z,100220.73
2018-11-26T01:36:59.154Z,100214.55
2018-11-26T01:39:28.854Z,100223.14
2018-11-26T01:41:58.622Z,100220.51
2018-11-26T01:44:28.279Z,100222.73
2018-11-26T01:46:58.070Z,100223.08
2018-11-26T01:49:27.741Z,100223.50
2018-11-26T01:51:57.523Z,100223.05
2018-11-26T01:54:27.274Z,100225.66
2018-11-26T01:56:57.014Z,100226.27
2018-11-26T01:59:26.899Z,100228.71
2018-11-26T02:01:56.810Z,100231.55
2018-11-26T02:04:26.594Z,100231.45
2018-11-26T02:06:56.268Z,100231.45
2018-11-26T02:09:25.936Z,100234.41
2018-11-26T02:11:56.337Z,100235.95
2018-11-26T02:14:26.491Z,100233.16
2018-11-26T02:16:56.140Z,100229.58
2018-11-26T02:19:26.797Z,100230.35
2018-11-26T02:21:56.473Z,100227.33
2018-11-26T02:24:26.118Z,100233.70
2018-11-26T02:26:55.820Z,100227.20
2018-11-26T02:29:25.454Z,100229.29
2018-11-26T02:31:55.212Z,100230.19
2018-11-26T02:34:24.976Z,100224.38
2018-11-26T02:36:54.615Z,100227.78
2018-11-26T02:39:24.349Z,100220.51
2018-11-26T02:41:54.000Z,100224.34
2018-11-26T02:44:23.681Z,100227.65
2018-11-26T02:46:53.479Z,100228.48
2018-11-26T02:49:23.222Z,100227.94
2018-11-26T02:51:52.900Z,100227.94
2018-11-26T02:54:22.568Z,100225.72
2018-11-26T02:56:52.221Z,100218.00
2018-11-26T02:59:21.870Z,100228.19
2018-11-26T03:01:51.657Z,100227.36
2018-11-26T03:04:21.316Z,100228.64
2018-11-26T03:06:51.019Z,100231.70
2018-11-26T03:09:20.675Z,100229.12
2018-11-26T03:11:50.496Z,100229.92
2018-11-26T03:14:20.158Z,100231.62
2018-11-26T03:16:49.831Z,100232.02
2018-11-26T03:19:19.502Z,100226.80
2018-11-26T03:21:49.190Z,100234.52
2018-11-26T03:24:18.950Z,100225.91
2018-11-26T03:26:48.733Z,100225.42
2018-11-26T03:29:18.670Z,100225.59
2018-11-26T03:31:48.467Z,100229.34
2018-11-26T03:34:18.207Z,100231.53
2018-11-26T03:36:47.950Z,100232.78
2018-11-26T03:39:17.782Z,100235.70
2018-11-26T03:41:47.936Z,100237.58
2018-11-26T03:44:17.709Z,100235.55
2018-11-26T03:46:47.541Z,100240.28
2018-11-26T03:49:17.378Z,100241.16
2018-11-26T03:51:48.451Z,100239.03
2018-11-26T03:54:18.211Z,100236.87
2018-11-26T03:56:48.007Z,100243.20
2018-11-26T03:59:17.662Z,100242.89
2018-11-26T04:01:47.512Z,100243.44
2018-11-26T04:04:17.302Z,100242.09
2018-11-26T04:06:46.992Z,100241.60
2018-11-26T04:09:16.717Z,100240.80
2018-11-26T04:11:46.542Z,100243.83
2018-11-26T04:14:16.174Z,100237.81
2018-11-26T04:16:45.911Z,100233.53
2018-11-26T04:19:15.586Z,100238.61
2018-11-26T04:21:45.261Z,100235.04
2018-11-26T04:24:14.961Z,100234.63
2018-11-26T04:26:44.635Z,100241.92
2018-11-26T04:29:14.302Z,100240.50
2018-11-26T04:31:44.007Z,100245.55
2018-11-26T04:34:13.634Z,100243.29
2018-11-26T04:36:43.399Z,100240.69
2018-11-26T04:39:13.288Z,100242.38
2018-11-26T04:41:43.078Z,100234.77
2018-11-26T04:44:12.850Z,100232.13
2018-11-26T04:46:42.622Z,100233.42
2018-11-26T04:49:12.291Z,100230.39
2018-11-26T04:51:42.028Z,100226.09
2018-11-26T04:54:12.010Z,100226.02
2018-11-26T04:56:41.687Z,100225.98
2018-11-26T04:59:11.493Z,100226.72
2018-11-26T05:01:41.170Z,100218.94
2018-11-26T05:04:10.930Z,100216.44
2018-11-26T05:06:40.755Z,100217.94
2018-11-26T05:09:10.719Z,100221.27
2018-11-26T05:11:40.393Z,100223.84
2018-11-26T05:14:10.122Z,100226.80
2018-11-26T05:16:39.840Z,100227.14
2018-11-26T05:19:09.481Z,100227.04
2018-11-26T05:21:39.150Z,100224.36
2018-11-26T05:24:09.094Z,100220.37
2018-11-26T05:26:38.579Z,100220.69
2018-11-26T05:29:08.391Z,100223.95
2018-11-26T05:31:38.278Z,100220.44
2018-11-26T05:34:08.126Z,100220.41
2018-11-26T05:36:37.942Z,100218.55
2018-11-26T05:39:09.699Z,100221.44
2018-11-26T05:41:39.442Z,100218.80
2018-11-26T05:44:09.135Z,100222.61
2018-11-26T05:46:38.881Z,100225.22
2018-11-26T05:49:08.778Z,100226.09
2018-11-26T05:51:38.448Z,100222.20
2018-11-26T05:54:08.362Z,100229.94
2018-11-26T05:56:38.030Z,100217.47
2018-11-26T05:59:07.849Z,100221.81
2018-11-26T06:01:37.604Z,100228.24
2018-11-26T06:04:07.910Z,100228.18
2018-11-26T06:06:37.887Z,100231.66
2018-11-26T06:09:11.258Z,100228.98
2018-11-26T06:11:41.642Z,100230.27
2018-11-26T06:14:11.401Z,100232.41
2018-11-26T06:16:41.113Z,100230.30
2018-11-26T06:19:10.763Z,100233.59
2018-11-26T06:21:40.566Z,100236.27
2018-11-26T06:24:10.307Z,100234.61
2018-11-26T06:26:40.039Z,100239.85
2018-11-26T06:29:09.930Z,100241.66
2018-11-26T06:31:39.817Z,100245.55
2018-11-26T06:34:09.588Z,100251.11
2018-11-26T06:36:39.306Z,100255.52
2018-11-26T06:39:11.149Z,100258.61
2018-11-26T06:41:40.833Z,100258.27
2018-11-26T06:44:10.725Z,100259.20
2018-11-26T06:46:40.405Z,100268.91
2018-11-26T06:49:11.014Z,100276.88
2018-11-26T06:51:40.830Z,100277.61
2018-11-26T06:54:11.275Z,100278.34
2018-11-26T06:56:40.978Z,100278.73
2018-11-26T06:59:10.678Z,100284.58
2018-11-26T07:01:40.936Z,100282.73
2018-11-26T07:04:10.610Z,100287.39
2018-11-26T07:06:40.397Z,100286.38
2018-11-26T07:09:10.299Z,100286.34
2018-11-26T07:11:41.673Z,100287.11
2018-11-26T07:14:11.320Z,100287.87
2018-11-26T07:16:41.111Z,100289.82
2018-11-26T07:19:11.498Z,100290.48
2018-11-26T07:21:41.337Z,100287.80
2018-11-26T07:24:11.193Z,100295.63
2018-11-26T07:26:41.117Z,100298.02
2018-11-26T07:29:10.830Z,100298.02
2018-11-26T07:31:40.566Z,100302.91
2018-11-26T07:34:10.272Z,100302.46
2018-11-26T07:36:40.071Z,100307.11
2018-11-26T07:39:10.755Z,100303.73
2018-11-26T07:41:40.425Z,100310.65
2018-11-26T07:44:11.612Z,100309.91
2018-11-26T07:46:41.307Z,100319.02
2018-11-26T07:49:11.363Z,100313.78
2018-11-26T07:51:41.243Z,100323.20
2018-11-26T07:54:12.669Z,100325.81
2018-11-26T07:56:42.558Z,100322.14
2018-11-26T07:59:12.309Z,100322.85
2018-11-26T08:01:42.100Z,100322.50
2018-11-26T08:04:11.897Z,100324.23
2018-11-26T08:06:41.603Z,100334.53
2018-11-26T08:09:11.406Z,100335.88
2018-11-26T08:11:41.593Z,100340.73
2018-11-26T08:14:11.294Z,100337.32
2018-11-26T08:16:41.205Z,100342.69
2018-11-26T08:19:10.884Z,100348.77
2018-11-26T08:21:40.820Z,100350.96
2018-11-26T08:24:10.430Z,100351.59
2018-11-26T08:26:40.144Z,100349.62
2018-11-26T08:29:09.986Z,100354.47
2018-11-26T08:31:39.851Z,100353.81
2018-11-26T08:34:09.478Z,100353.64
2018-11-26T08:36:45.315Z,100355.02
2018-11-26T08:39:19.805Z,100356.19
2018-11-26T08:41:53.881Z,100365.09
2018-11-26T08:44:29.046Z,100368.62
2018-11-26T08:47:03.907Z,100375.30
2018-11-26T08:49:40.226Z,100371.70
2018-11-26T08:52:10.979Z,100376.38
2018-11-26T08:54:40.705Z,100382.89
2018-11-26T08:57:10.436Z,100383.46
2018-11-26T08:59:40.181Z,100382.77
2018-11-26T09:02:09.993Z,100387.09
2018-11-26T09:04:46.162Z,100387.95
2018-11-26T09:07:15.952Z,100397.16
2018-11-26T09:09:45.643Z,100398.20
2018-11-26T09:12:15.493Z,100398.73
2018-11-26T09:14:45.169Z,100404.88
2018-11-26T09:17:14.964Z,100403.03
2018-11-26T09:19:44.638Z,100407.91
2018-11-26T09:22:14.431Z,100416.35
2018-11-26T09:24:44.095Z,100415.69
2018-11-26T09:27:13.835Z,100425.80
2018-11-26T09:29:43.551Z,100433.02
2018-11-26T09:32:13.358Z,100428.91
2018-11-26T09:34:43.111Z,100431.19
2018-11-26T09:37:12.830Z,100432.06
2018-11-26T09:39:42.555Z,100434.30
2018-11-26T09:42:12.273Z,100431.14
2018-11-26T09:44:42.050Z,100439.36
2018-11-26T09:47:11.814Z,100436.10
2018-11-26T09:49:41.676Z,100437.10
2018-11-26T09:52:11.478Z,100440.96
2018-11-26T09:54:41.340Z,100439.61
2018-11-26T09:57:11.127Z,100438.77
2018-11-26T09:59:40.760Z,100434.63
2018-11-26T10:03:39.467Z,100432.81
2018-11-26T10:06:09.148Z,100442.28
2018-11-26T10:08:39.070Z,100442.83
2018-11-26T10:11:08.813Z,100444.95
2018-11-26T10:13:38.535Z,100444.41
2018-11-26T10:16:09.073Z,100442.45
2018-11-26T10:18:38.887Z,100438.66
2018-11-26T10:21:08.728Z,100442.01
2018-11-26T10:23:38.664Z,100443.25
2018-11-26T10:26:08.448Z,100439.95
2018-11-26T10:28:38.286Z,100437.91
2018-11-26T10:31:08.022Z,100435.40
2018-11-26T10:33:37.793Z,100438.83
2018-11-26T10:36:07.620Z,100438.42
2018-11-26T10:38:37.321Z,100443.00
2018-11-26T10:41:07.514Z,100443.22
2018-11-26T10:43:37.215Z,100436.54
2018-11-26T10:46:07.074Z,100438.35
2018-11-26T10:48:37.400Z,100436.54
2018-11-26T10:51:08.694Z,100434.54
2018-11-26T10:53:38.434Z,100438.03
2018-11-26T10:56:08.589Z,100435.30
2018-11-26T10:58:38.387Z,100442.02
2018-11-26T11:01:13.276Z,100442.37
2018-11-26T11:03:43.094Z,100450.50
2018-11-26T11:06:12.801Z,100443.84
2018-11-26T11:08:42.538Z,100441.61
2018-11-26T11:11:12.720Z,100440.94
2018-11-26T11:13:42.590Z,100438.42
2018-11-26T11:16:12.336Z,100447.99
2018-11-26T11:18:42.077Z,100446.35
2018-11-26T11:21:11.838Z,100451.33
2018-11-26T11:23:41.639Z,100457.19
2018-11-26T11:26:11.356Z,100457.45
2018-11-26T11:28:41.080Z,100452.00
2018-11-26T11:31:11.245Z,100457.67
2018-11-26T11:33:41.396Z,100455.80
2018-11-26T11:36:11.146Z,100454.53
2018-11-26T11:38:40.994Z,100454.41
2018-11-26T11:41:10.868Z,100454.92
2018-11-26T11:43:40.694Z,100452.50
2018-11-26T11:46:10.405Z,100455.95
2018-11-26T11:48:40.568Z,100456.80
2018-11-26T11:51:10.308Z,100453.27
2018-11-26T11:53:40.171Z,100447.06
2018-11-26T11:56:10.087Z,100449.88
2018-11-26T11:58:39.800Z,100449.65
2018-11-26T12:01:10.751Z,100442.09
2018-11-26T12:03:40.276Z,100445.52
2018-11-26T12:06:10.061Z,100448.69
2018-11-26T12:08:39.815Z,100447.16
2018-11-26T12:11:09.763Z,100449.03
2018-11-26T12:13:39.447Z,100447.22
2018-11-26T12:16:09.166Z,100451.05
2018-11-26T12:18:38.921Z,100450.16
2018-11-26T12:21:08.759Z,100445.26
2018-11-26T12:23:38.660Z,100444.67
2018-11-26T12:26:08.521Z,100442.91
2018-11-26T12:28:38.492Z,100449.50
2018-11-26T12:31:08.404Z,100450.34
2018-11-26T12:33:38.784Z,100451.31
2018-11-26T12:36:08.892Z,100444.54
2018-11-26T12:38:38.898Z,100442.72
2018-11-26T12:41:08.760Z,100450.42
2018-11-26T12:43:38.478Z,100448.71
2018-11-26T12:46:08.196Z,100451.71
2018-11-26T12:48:38.280Z,100453.81
2018-11-26T12:51:08.102Z,100453.53
2018-11-26T12:53:38.191Z,100450.55
2018-11-26T12:56:08.232Z,100450.73
2018-11-26T12:58:38.034Z,100451.48
2018-11-26T13:01:07.719Z,100454.41
2018-11-26T13:03:37.467Z,100451.39
2018-11-26T13:06:08.141Z,100446.59
2018-11-26T13:08:37.852Z,100447.10
2018-11-26T13:11:14.226Z,100446.44
2018-11-26T13:13:44.080Z,100449.02
2018-11-26T13:16:13.987Z,100446.25
2018-11-26T13:18:43.755Z,100445.44
2018-11-26T13:21:13.585Z,100437.64
2018-11-26T13:23:43.264Z,100443.47
2018-11-26T13:26:13.086Z,100439.80
2018-11-26T13:28:42.802Z,100445.38
2018-11-26T13:31:12.533Z,100443.46
2018-11-26T13:33:42.286Z,100450.45
2018-11-26T13:36:12.074Z,100445.78
2018-11-26T13:38:41.806Z,100447.89
2018-11-26T13:41:11.550Z,100458.32
2018-11-26T13:43:41.255Z,100452.55
2018-11-26T13:46:11.040Z,100455.31
2018-11-26T13:48:40.781Z,100452.86
2018-11-26T13:51:10.513Z,100462.33
2018-11-26T13:53:40.225Z,100465.86
2018-11-26T13:56:10.104Z,100465.77
2018-11-26T13:58:39.796Z,100471.66
2018-11-26T14:01:09.546Z,100468.08
2018-11-26T14:03:39.313Z,100469.64
2018-11-26T14:06:09.104Z,100471.36
2018-11-26T14:08:38.900Z,100468.92
2018-11-26T14:11:08.594Z,100466.03
2018-11-26T14:13:38.300Z,100467.57
2018-11-26T14:16:08.457Z,100473.50
2018-11-26T14:18:38.601Z,100471.17
2018-11-26T14:21:08.355Z,100478.36
2018-11-26T14:23:38.092Z,100482.68
2018-11-26T14:26:07.950Z,100483.52
2018-11-26T14:28:37.720Z,100487.92
2018-11-26T14:31:07.612Z,100488.69
2018-11-26T14:33:37.547Z,100491.96
2018-11-26T14:36:07.827Z,100493.36
2018-11-26T14:38:37.694Z,100491.44
2018-11-26T14:41:07.476Z,100489.53
2018-11-26T14:43:37.259Z,100493.94
2018-11-26T14:46:07.595Z,100492.11
2018-11-26T14:48:37.348Z,100491.17
2018-11-26T14:51:07.152Z,100495.98
2018-11-26T14:53:36.928Z,100493.12
2018-11-26T14:56:07.452Z,100498.49
2018-11-26T14:58:37.212Z,100499.34
2018-11-26T15:01:07.421Z,100510.66
2018-11-26T15:03:37.169Z,100506.06
2018-11-26T15:06:07.390Z,100502.94
2018-11-26T15:08:37.163Z,100509.61
2018-11-26T15:11:07.798Z,100509.48
2018-11-26T15:13:38.039Z,100510.64
2018-11-26T15:16:08.704Z,100510.87
2018-11-26T15:18:39.187Z,100519.34
2018-11-26T15:21:08.966Z,100517.41
2018-11-26T15:23:38.702Z,100520.98
2018-11-26T15:26:08.573Z,100526.62
2018-11-26T15:28:38.292Z,100526.11
2018-11-26T15:31:08.160Z,100526.98
2018-11-26T15:33:37.888Z,100522.98
2018-11-26T15:36:08.054Z,100522.02
2018-11-26T15:38:37.948Z,100530.20
2018-11-26T15:41:07.774Z,100520.76
2018-11-26T15:43:37.772Z,100527.66
2018-11-26T15:46:14.244Z,100529.85
2018-11-26T15:48:44.315Z,100535.36
2018-11-26T15:51:14.039Z,100529.05
2018-11-26T15:53:44.293Z,100541.03
2018-11-26T15:56:14.628Z,100540.16
2018-11-26T15:58:44.320Z,100549.02
2018-11-26T16:01:14.045Z,100543.19
2018-11-26T16:03:43.756Z,100550.73
2018-11-26T16:06:13.470Z,100541.91
2018-11-26T16:08:43.402Z,100542.13
2018-11-26T16:11:13.296Z,100544.29
2018-11-26T16:13:43.775Z,100543.64
2018-11-26T16:16:13.626Z,100547.16
2018-11-26T16:18:43.402Z,100546.02
2018-11-26T16:21:13.180Z,100553.49
2018-11-26T16:23:43.564Z,100554.81
2018-11-26T16:26:13.596Z,100559.38
2018-11-26T16:28:43.413Z,100558.65
2018-11-26T16:31:13.225Z,100560.62
2018-11-26T16:33:43.154Z,100553.17
2018-11-26T16:36:12.954Z,100562.52
2018-11-26T16:38:43.547Z,100561.20
2018-11-26T16:41:13.312Z,100562.80
2018-11-26T16:43:43.224Z,100565.77
2018-11-26T16:46:13.120Z,100569.48
2018-11-26T16:48:43.076Z,100571.50
2018-11-26T16:51:13.133Z,100572.70
2018-11-26T16:53:43.367Z,100570.62
2018-11-26T16:56:13.111Z,100575.50
2018-11-26T16:58:43.175Z,100578.75
2018-11-26T17:01:13.083Z,100573.17
2018-11-26T17:03:44.042Z,100581.38
2018-11-26T17:06:13.827Z,100573.66
2018-11-26T17:08:43.769Z,100582.66
2018-11-26T17:11:13.662Z,100588.05
2018-11-26T17:13:44.494Z,100594.28
2018-11-26T17:16:14.570Z,100593.66
2018-11-26T17:18:44.581Z,100595.58
2018-11-26T17:21:14.320Z,100596.20
2018-11-26T17:23:44.191Z,100603.55
2018-11-26T17:26:14.184Z,100598.54
2018-11-26T17:28:43.892Z,100604.73
2018-11-26T17:31:16.743Z,100608.02
2018-11-26T17:33:46.710Z,100601.50
2018-11-26T17:36:16.374Z,100608.43
2018-11-26T17:38:46.078Z,100612.05
2018-11-26T17:41:16.495Z,100611.84
2018-11-26T17:43:46.238Z,100615.00
2018-11-26T17:46:15.956Z,100617.52
2018-11-26T17:48:45.831Z,100627.41
2018-11-26T17:51:15.778Z,100632.05
2018-11-26T17:53:45.623Z,100637.36
2018-11-26T17:56:15.501Z,100636.91
2018-11-26T17:58:45.525Z,100636.66
2018-11-26T18:01:25.949Z,100642.86
2018-11-26T18:03:55.756Z,100644.12
2018-11-26T18:06:25.461Z,100643.41
2018-11-26T18:08:55.339Z,100645.66
2018-11-26T18:11:25.359Z,100649.78
2018-11-26T18:13:55.341Z,100649.63
2018-11-26T18:16:25.144Z,100654.86
2018-11-26T18:18:54.924Z,100654.67
2018-11-26T18:21:25.853Z,100656.11
2018-11-26T18:23:55.647Z,100660.46
2018-11-26T18:26:25.756Z,100658.95
2018-11-26T18:28:55.507Z,100660.89
2018-11-26T18:31:25.298Z,100661.50
2018-11-26T18:33:55.015Z,100674.37
2018-11-26T18:36:24.955Z,100674.63
2018-11-26T18:38:54.724Z,100674.90
2018-11-26T18:41:24.443Z,100677.89
2018-11-26T18:43:54.483Z,100682.32
2018-11-26T18:46:24.285Z,100683.72
2018-11-26T18:48:54.246Z,100687.88
2018-11-26T18:51:24.058Z,100687.88
2018-11-26T18:53:53.768Z,100690.69
2018-11-26T18:56:23.731Z,100695.50
2018-11-26T18:58:57.224Z,100695.72
2018-11-26T19:01:27.145Z,100693.15
2018-11-26T19:03:56.960Z,100694.31
2018-11-26T19:06:26.740Z,100701.56
2018-11-26T19:08:56.616Z,100705.98
2018-11-26T19:11:26.468Z,100707.80
2018-11-26T19:14:08.151Z,100708.30
2018-11-26T19:16:41.729Z,100713.24
2018-11-26T19:19:11.474Z,100717.88
2018-11-26T19:21:41.332Z,100722.65
2018-11-26T19:24:11.207Z,100723.86
2018-11-26T19:26:40.993Z,100720.25
2018-11-26T19:29:10.880Z,100727.63
2018-11-26T19:31:40.869Z,100729.61
2018-11-26T19:34:10.623Z,100734.22
2018-11-26T19:36:40.547Z,100737.64
2018-11-26T19:39:11.036Z,100743.20
2018-11-26T19:41:40.987Z,100745.62
2018-11-26T19:44:10.901Z,100750.05
2018-11-26T19:46:40.863Z,100756.23
2018-11-26T19:49:10.874Z,100749.80
2018-11-26T19:51:40.688Z,100750.50
2018-11-26T19:54:10.586Z,100748.34
2018-11-26T19:56:40.547Z,100756.73
2018-11-26T19:59:10.354Z,100759.19
2018-11-26T20:01:40.324Z,100752.87
2018-11-26T20:04:27.279Z,100754.25
2018-11-26T20:06:57.211Z,100759.67
2018-11-26T20:09:27.674Z,100763.09
2018-11-26T20:11:57.570Z,100765.84
2018-11-26T20:14:28.736Z,100768.78
2018-11-26T20:16:58.689Z,100780.36
2018-11-26T20:19:28.603Z,100785.39
2018-11-26T20:21:58.917Z,100787.38
2018-11-26T20:24:28.737Z,100784.93
2018-11-26T20:26:59.246Z,100795.56
2018-11-26T20:29:29.137Z,100797.26
2018-11-26T20:31:58.973Z,100790.29
2018-11-26T20:34:28.735Z,100792.86
2018-11-26T20:36:58.618Z,100796.73
2018-11-26T20:39:29.035Z,100794.44
2018-11-26T20:41:58.846Z,100805.03
2018-11-26T20:44:28.563Z,100807.72
2018-11-26T20:46:58.603Z,100809.89
2018-11-26T20:49:28.553Z,100811.24
2018-11-26T20:51:58.728Z,100811.24
2018-11-26T20:54:28.479Z,100811.13
2018-11-26T20:56:58.368Z,100820.88
2018-11-26T20:59:28.183Z,100819.55
2018-11-26T21:01:58.026Z,100820.84
2018-11-26T21:04:27.755Z,100816.02
2018-11-26T21:06:57.752Z,100818.76
2018-11-26T21:09:27.661Z,100818.18
2018-11-26T21:11:57.484Z,100816.59
2018-11-26T21:14:27.392Z,100822.16
2018-11-26T21:16:57.366Z,100817.66
2018-11-26T21:19:27.138Z,100820.33
2018-11-26T21:21:57.073Z,100822.70
2018-11-26T21:24:26.853Z,100827.72
2018-11-26T21:26:56.579Z,100830.98
2018-11-26T21:29:26.309Z,100830.63
2018-11-26T21:31:56.097Z,100836.01
2018-11-26T21:34:25.934Z,100835.09
2018-11-26T21:36:55.732Z,100829.58
2018-11-26T21:39:25.486Z,100832.83
2018-11-26T21:41:55.231Z,100838.44
2018-11-26T21:44:24.948Z,100834.98
2018-11-26T21:46:54.773Z,100836.90
2018-11-26T21:49:24.559Z,100839.53
2018-11-26T21:51:54.604Z,100844.59
2018-11-26T21:54:25.281Z,100842.00
2018-11-26T21:56:55.312Z,100845.55
2018-11-26T21:59:25.139Z,100845.95
2018-11-26T22:01:55.519Z,100842.28
2018-11-26T22:04:25.330Z,100844.25
2018-11-26T22:06:55.044Z,100848.59
2018-11-26T22:09:24.816Z,100849.46
2018-11-26T22:11:54.496Z,100854.38
2018-11-26T22:14:24.864Z,100858.00
2018-11-26T22:16:54.635Z,100860.72
2018-11-26T22:19:24.378Z,100860.13
2018-11-26T22:21:54.317Z,100860.90
2018-11-26T22:24:24.457Z,100871.97
2018-11-26T22:26:54.275Z,100874.63
2018-11-26T22:29:24.078Z,100877.62
2018-11-26T22:31:54.448Z,100876.05
2018-11-26T22:34:24.226Z,100879.68
2018-11-26T22:36:54.054Z,100878.13
2018-11-26T22:39:24.979Z,100881.39
2018-11-26T22:41:54.801Z,100883.81
2018-11-26T22:44:24.589Z,100886.66
2018-11-26T22:46:54.318Z,100889.15
2018-11-26T22:49:24.188Z,100895.98
2018-11-26T22:51:54.154Z,100899.06
2018-11-26T22:54:23.999Z,100895.89
2018-11-26T22:56:53.827Z,100898.47
2018-11-26T22:59:23.508Z,100901.17
2018-11-26T23:01:53.290Z,100898.02
2018-11-26T23:04:23.020Z,100904.45
2018-11-26T23:06:52.768Z,100903.93
2018-11-26T23:09:22.568Z,100907.43
2018-11-26T23:11:52.373Z,100906.55
2018-11-26T23:14:22.156Z,100906.09
2018-11-26T23:16:51.892Z,100907.19
2018-11-26T23:19:21.965Z,100908.53
2018-11-26T23:21:51.874Z,100910.69
2018-11-26T23:24:22.583Z,100911.78
2018-11-26T23:26:53.084Z,100908.39
2018-11-26T23:29:22.925Z,100917.11
2018-11-26T23:31:52.723Z,100913.17
2018-11-26T23:34:22.412Z,100924.42
2018-11-26T23:36:53.116Z,100923.88
2018-11-26T23:39:23.073Z,100921.39
2018-11-26T23:41:52.823Z,100924.78
2018-11-26T23:44:22.610Z,100920.92
2018-11-26T23:46:52.277Z,100919.60
2018-11-26T23:49:22.000Z,100928.78
2018-11-26T23:51:51.908Z,100929.92
2018-11-26T23:54:21.664Z,100936.36
2018-11-26T23:56:51.771Z,100934.98
2018-11-26T23:59:21.596Z,100937.04
